This is the latest recevied weather packets stored in our database for station/object LZ1HCO-25. If no packets are shown the sender has not sent any weather packets the latest 1 day(s).
| Time | Temp. | Humidity | Pressure | Rain* | Wind** | Luminosity | Snow |
|---|---|---|---|---|---|---|---|
| 1777963723 | 22.78° C | 59% | 969 hPa | - | 0 m/s | 0 W/m² | - |
| 1777963411 | 22.22° C | 64% | 969 hPa | - | 0 m/s | 0 W/m² | - |
| 1777963100 | 21.67° C | 67% | 969 hPa | - | 0 m/s | 0 W/m² | - |
| 1777962788 | 21.11° C | 76% | 970 hPa | - | 0 m/s | 0 W/m² | - |
| 1777962477 | 20.56° C | 77% | 970 hPa | - | 0 m/s | 0 W/m² | - |
| 1777962166 | 21.11° C | 75% | 969 hPa | - | 0 m/s | 0 W/m² | - |
| 1777961854 | 20.56° C | 81% | 969 hPa | - | 0 m/s | 0 W/m² | - |
| 1777961543 | 20.56° C | 79% | 969 hPa | - | 0 m/s | 0 W/m² | - |
| 1777961232 | 19.44° C | 82% | 969 hPa | - | 0 m/s | 0 W/m² | - |
| 1777960920 | 20° C | 71% | 969 hPa | - | 0 m/s | 0 W/m² | - |
| 1777960609 | 18.89° C | 75% | 969 hPa | - | 0 m/s | 0 W/m² | - |
| 1777960298 | 18.89° C | 78% | 969 hPa | - | 0 m/s | 0 W/m² | - |
| 1777959986 | 18.33° C | 82% | 969 hPa | - | 0 m/s | 0 W/m² | - |
| 1777959675 | 17.22° C | 93% | 969 hPa | - | 0 m/s | 0 W/m² | - |
| 1777959364 | 16.67° C | 93% | 969 hPa | - | 0 m/s | 0 W/m² | - |
| 1777959052 | 16.67° C | 94% | 969 hPa | - | 0 m/s | 0 W/m² | - |
| 1777958741 | 16.11° C | 99% | 969 hPa | - | 0 m/s | 0 W/m² | - |
| 1777958429 | 15.56° C | 99% | 969 hPa | - | 0 m/s | 0 W/m² | - |
| 1777958118 | 15° C | 99% | 969 hPa | - | 0 m/s | 0 W/m² | - |
| 1777957807 | 14.44° C | 99% | 970 hPa | - | 0 m/s | 0 W/m² | - |
| 1777957495 | 14.44° C | 99% | 970 hPa | - | 0 m/s | 0 W/m² | - |
| 1777957184 | 14.44° C | 99% | 970 hPa | - | 0 m/s | 0 W/m² | - |
| 1777956873 | 13.33° C | 99% | 970 hPa | - | 0 m/s | 0 W/m² | - |
| 1777956561 | 12.78° C | 99% | 970 hPa | - | 0 m/s | 0 W/m² | - |
| 1777956374 | 12.78° C | 99% | 970 hPa | - | 0 m/s | 0 W/m² | - |
* Rain since midnight (hover to see other rain measurements)
** Current wind speed in m/s (hover to see current wind gust speed)